Time;durP1;ratioP1;P1;durP2;ratioP2;P2;SDS_P1;SDS_P2;PMS_P1;PMS_P2;Temp;Humidity;BMP_temperature;BMP_pressure;BME280_temperature;BME280_humidity;BME280_pressure;Samples;Min_cycle;Max_cycle;Signal;HPM_P1;HPM_P2
2022/12/29 00:02:10;;;;;;;;;;;;;;;5.50;100.00;98951.41;4993311;28;20031;-83
2022/12/29 00:04:35;;;;;;;;;;;;;;;5.57;100.00;98950.31;4995319;28;19956;-83
2022/12/29 00:07:00;;;;;;;;;;;;;;;5.54;100.00;98957.44;4994942;28;19918;-87
2022/12/29 00:09:26;;;;;;;;;;;;;;;5.59;100.00;98958.13;4993847;28;19925;-88
2022/12/29 00:11:51;;;;;;;;;;;;;;;5.56;100.00;98959.09;4993911;28;19918;-84
2022/12/29 00:17:00;;;;;;;;;;;;;;;5.51;100.00;98947.88;4995256;28;19980;-84
2022/12/29 00:36:17;;;;;;;;;;;;;;;5.51;100.00;98939.16;4994789;28;19964;-84
2022/12/29 00:44:13;;;;;;;;;;;;;;;5.49;100.00;98923.44;4994510;28;20013;-85
2022/12/29 00:46:40;;;;;;;;;;;;;;;5.50;100.00;98933.03;4994505;28;20301;-90
2022/12/29 00:51:50;;;;;;;;;;;;;;;5.49;100.00;98907.69;4994737;28;19920;-82
2022/12/29 00:54:18;;;;;;;;;;;;;;;5.46;100.00;98902.53;4999095;28;20008;-87
2022/12/29 00:56:45;;;;;;;;;;;;;;;5.52;100.00;98901.44;4996340;28;19924;-87
2022/12/29 00:59:11;;;;;;;;;;;;;;;5.49;100.00;98910.31;5013794;28;19918;-83
2022/12/29 01:01:37;;;;;;;;;;;;;;;5.51;100.00;98911.09;5013608;28;19968;-93
2022/12/29 01:04:03;;;;;;;;;;;;;;;5.48;100.00;98916.47;4996537;28;19917;-91
2022/12/29 01:06:28;;;;;;;;;;;;;;;5.43;100.00;98908.75;5013822;28;20401;-85
2022/12/29 01:11:37;;;;;;;;;;;;;;;5.50;100.00;98919.88;5013595;28;19983;-85
2022/12/29 03:12:07;;;;;;;;;;;;;;;5.36;100.00;98832.81;5014488;28;19979;-90
2022/12/29 03:17:23;;;;;;;;;;;;;;;5.36;100.00;98830.19;5036262;28;19920;-87
2022/12/29 03:19:51;;;;;;;;;;;;;;;5.35;100.00;98815.38;5035592;28;20375;-87
2022/12/29 03:22:28;;;;;;;;;;;;;;;5.37;100.00;98818.78;5035508;28;19924;-89
2022/12/29 03:24:59;;;;;;;;;;;;;;;5.34;100.00;98816.28;5033893;28;19918;-89
2022/12/29 03:27:29;;;;;;;;;;;;;;;5.36;100.00;98812.69;5017758;28;19967;-89
2022/12/29 03:29:57;;;;;;;;;;;;;;;5.39;100.00;98795.94;5017609;28;19917;-90
2022/12/29 03:32:25;;;;;;;;;;;;;;;5.41;100.00;98802.00;5035157;28;20387;-89
2022/12/29 03:34:51;;;;;;;;;;;;;;;5.43;100.00;98808.06;5035259;28;19972;-89
2022/12/29 03:37:22;;;;;;;;;;;;;;;5.34;100.00;98797.88;5035208;28;19944;-87
2022/12/29 03:39:48;;;;;;;;;;;;;;;5.34;100.00;98800.50;5033789;28;19921;-87
2022/12/29 03:42:17;;;;;;;;;;;;;;;5.42;100.00;98806.31;5035084;28;19924;-90
2022/12/29 03:44:43;;;;;;;;;;;;;;;5.33;100.00;98804.91;5017166;28;20015;-88
2022/12/29 03:47:13;;;;;;;;;;;;;;;5.36;100.00;98794.28;5017314;28;20008;-88
2022/12/29 03:49:38;;;;;;;;;;;;;;;5.39;100.00;98801.19;5017189;28;20384;-90
2022/12/29 03:52:04;;;;;;;;;;;;;;;5.43;100.00;98808.91;5017585;28;19959;-91
2022/12/29 03:54:29;;;;;;;;;;;;;;;5.38;100.00;98802.97;5016061;28;19917;-92
2022/12/29 03:56:55;;;;;;;;;;;;;;;5.38;100.00;98796.88;5018213;28;19917;-95
2022/12/29 03:59:20;;;;;;;;;;;;;;;5.39;100.00;98788.94;5017720;28;19966;-92
2022/12/29 04:01:46;;;;;;;;;;;;;;;5.41;100.00;98802.00;5035306;28;20320;-93
2022/12/29 04:04:11;;;;;;;;;;;;;;;5.41;100.00;98804.63;5035468;28;20360;-93
2022/12/29 04:06:36;;;;;;;;;;;;;;;5.51;100.00;98789.38;5034995;28;20408;-90
2022/12/29 04:09:02;;;;;;;;;;;;;;;5.44;100.00;98804.50;5033418;28;19917;-91
2022/12/29 04:11:27;;;;;;;;;;;;;;;5.49;100.00;98806.94;5034386;28;20490;-90
2022/12/29 04:13:52;;;;;;;;;;;;;;;5.44;100.00;98805.38;5016670;28;19956;-90
2022/12/29 04:16:18;;;;;;;;;;;;;;;5.33;100.00;98806.66;5034504;28;19947;-92
2022/12/29 04:18:43;;;;;;;;;;;;;;;5.43;100.00;98803.66;5034283;28;20395;-89
2022/12/29 04:21:08;;;;;;;;;;;;;;;5.38;100.00;98805.59;5016725;28;19964;-91
2022/12/29 04:23:37;;;;;;;;;;;;;;;5.40;100.00;98800.28;5015276;28;19924;-90
2022/12/29 04:26:02;;;;;;;;;;;;;;;5.33;100.00;98794.41;5034222;28;19920;-90
2022/12/29 04:28:28;;;;;;;;;;;;;;;5.37;100.00;98803.03;5016448;28;20387;-91
2022/12/29 04:30:53;;;;;;;;;;;;;;;5.37;100.00;98810.91;5016293;28;20364;-90
2022/12/29 04:33:19;;;;;;;;;;;;;;;5.41;100.00;98796.75;5016462;28;20288;-91
2022/12/29 04:35:44;;;;;;;;;;;;;;;5.33;100.00;98801.41;5034070;28;20364;-90
2022/12/29 04:38:10;;;;;;;;;;;;;;;5.39;100.00;98801.19;5015813;28;19971;-89
2022/12/29 04:40:35;;;;;;;;;;;;;;;5.46;100.00;98800.06;5034386;28;20402;-93
2022/12/29 04:43:00;;;;;;;;;;;;;;;5.40;100.00;98795.88;5019301;28;19917;-91
2022/12/29 04:45:28;;;;;;;;;;;;;;;5.39;100.00;98801.19;5017017;28;19923;-92
2022/12/29 04:47:54;;;;;;;;;;;;;;;5.41;100.00;98789.72;5034135;28;20010;-93
2022/12/29 04:50:19;;;;;;;;;;;;;;;5.41;100.00;98788.88;5016234;28;19975;-92
2022/12/29 04:52:44;;;;;;;;;;;;;;;5.35;100.00;98794.34;5016119;28;19917;-94
2022/12/29 04:55:10;;;;;;;;;;;;;;;5.40;100.00;98802.91;5032654;28;19924;-92
2022/12/29 08:55:58;;;;;;;;;;;;;;;5.43;100.00;98915.78;5166127;22;19933;-88
2022/12/29 08:58:24;;;;;;;;;;;;;;;5.41;100.00;98921.09;4994570;28;20399;-88
2022/12/29 09:00:51;;;;;;;;;;;;;;;5.44;100.00;98910.47;4976907;28;19922;-86
2022/12/29 09:03:16;;;;;;;;;;;;;;;5.44;100.00;98909.59;4976896;28;19941;-87
2022/12/29 09:05:47;;;;;;;;;;;;;;;5.41;100.00;98915.81;4994399;28;19922;-84
2022/12/29 09:08:12;;;;;;;;;;;;;;;5.43;100.00;98926.28;4994265;28;19921;-86
2022/12/29 09:10:37;;;;;;;;;;;;;;;5.43;100.00;98935.00;4993221;28;20009;-85
2022/12/29 09:13:02;;;;;;;;;;;;;;;5.49;100.00;98972.50;4994481;28;19964;-86
2022/12/29 09:15:30;;;;;;;;;;;;;;;5.45;100.00;98951.56;4994223;28;19941;-84
2022/12/29 09:17:55;;;;;;;;;;;;;;;5.48;100.00;98961.13;4993943;28;20377;-83
2022/12/29 09:20:20;;;;;;;;;;;;;;;5.44;100.00;98951.63;4984917;28;19964;-83
2022/12/29 09:22:46;;;;;;;;;;;;;;;5.42;100.00;98963.97;4970863;28;19968;-83
2022/12/29 09:25:12;;;;;;;;;;;;;;;5.39;100.00;98972.84;4982067;28;20304;-83
2022/12/29 09:27:37;;;;;;;;;;;;;;;5.37;100.00;98965.91;4981691;28;19970;-85
2022/12/29 09:30:03;;;;;;;;;;;;;;;5.40;100.00;98973.69;4982138;28;19926;-85
2022/12/29 09:32:29;;;;;;;;;;;;;;;5.43;100.00;98982.31;4979503;28;19929;-84
2022/12/29 09:34:56;;;;;;;;;;;;;;;5.40;100.00;98981.56;4982716;28;20020;-85
2022/12/29 09:37:21;;;;;;;;;;;;;;;5.45;100.00;99001.50;4982454;28;19920;-83
2022/12/29 09:39:47;;;;;;;;;;;;;;;5.42;100.00;99006.00;4975900;28;19922;-86
2022/12/29 09:42:47;;;;;;;;;;;;;;;5.41;100.00;98981.50;4983432;28;19941;-84
2022/12/29 09:45:12;;;;;;;;;;;;;;;5.41;100.00;98985.91;4919429;29;20323;-84
2022/12/29 09:47:38;;;;;;;;;;;;;;;5.40;100.00;98987.66;4969352;28;19929;-84
2022/12/29 09:50:30;;;;;;;;;;;;;;;5.36;100.00;98990.44;4988079;28;20020;-84
2022/12/29 09:53:01;;;;;;;;;;;;;;;5.32;100.00;98994.09;4966613;28;19964;-87
2022/12/29 09:55:38;;;;;;;;;;;;;;;5.37;100.00;98997.44;4973147;28;19976;-83
2022/12/29 09:58:05;;;;;;;;;;;;;;;5.29;100.00;98989.81;4999738;28;19932;-83
2022/12/29 10:00:40;;;;;;;;;;;;;;;5.31;100.00;98993.22;4999828;28;19929;-83
2022/12/29 10:03:11;;;;;;;;;;;;;;;5.35;100.00;98983.50;4993061;28;19918;-84
2022/12/29 10:05:45;;;;;;;;;;;;;;;5.29;100.00;98992.44;4993278;28;19918;-82
2022/12/29 10:08:22;;;;;;;;;;;;;;;5.33;100.00;98995.81;4993839;28;19936;-82
2022/12/29 10:10:58;;;;;;;;;;;;;;;5.30;100.00;98995.91;4992882;28;19918;-84
2022/12/29 10:13:50;;;;;;;;;;;;;;;5.25;100.00;98988.22;4993610;28;19921;-83
2022/12/29 10:16:23;;;;;;;;;;;;;;;5.31;100.00;98992.38;4993401;28;19944;-83
2022/12/29 10:18:52;;;;;;;;;;;;;;;5.38;100.00;98997.38;4993407;28;19918;-84
2022/12/29 10:21:29;;;;;;;;;;;;;;;5.37;100.00;98998.28;4993308;28;20342;-84
2022/12/29 10:23:54;;;;;;;;;;;;;;;5.31;100.00;99008.16;4992187;28;19965;-84
2022/12/29 10:26:22;;;;;;;;;;;;;;;5.35;100.00;99004.50;4993341;28;19918;-83
2022/12/29 10:28:47;;;;;;;;;;;;;;;5.28;100.00;98998.59;4993402;28;19918;-84
2022/12/29 10:31:19;;;;;;;;;;;;;;;5.29;100.00;98989.81;4993328;28;19925;-87
2022/12/29 10:33:45;;;;;;;;;;;;;;;5.33;100.00;98987.94;4993428;28;19929;-84
2022/12/29 10:36:20;;;;;;;;;;;;;;;5.30;100.00;98993.28;4995452;28;19918;-83
2022/12/29 10:38:53;;;;;;;;;;;;;;;5.27;100.00;98995.09;4995574;28;19961;-84
2022/12/29 10:41:25;;;;;;;;;;;;;;;5.25;100.00;98986.44;4996791;28;20317;-86
2022/12/29 10:43:52;;;;;;;;;;;;;;;5.30;100.00;98993.28;4997003;28;19918;-83
2022/12/29 10:46:20;;;;;;;;;;;;;;;5.27;100.00;98991.63;5011910;28;19922;-85
2022/12/29 10:48:46;;;;;;;;;;;;;;;5.26;100.00;98993.41;5012070;28;19918;-85
2022/12/29 10:51:18;;;;;;;;;;;;;;;5.29;100.00;98981.94;4996642;28;19918;-85
2022/12/29 10:53:46;;;;;;;;;;;;;;;5.30;100.00;98985.41;4995354;28;20008;-87
2022/12/29 10:56:21;;;;;;;;;;;;;;;5.31;100.00;98990.59;4996591;28;19964;-84
2022/12/29 10:58:48;;;;;;;;;;;;;;;5.28;100.00;98990.69;4996682;28;19999;-84
2022/12/29 11:01:13;;;;;;;;;;;;;;;5.24;100.00;98976.81;4996382;28;19918;-84
2022/12/29 11:03:59;;;;;;;;;;;;;;;5.25;100.00;98981.19;4996404;28;19918;-87
2022/12/29 11:06:25;;;;;;;;;;;;;;;5.24;100.00;98994.38;5011375;28;19926;-86
2022/12/29 11:08:54;;;;;;;;;;;;;;;5.26;100.00;98982.03;4995174;28;19924;-86
2022/12/29 11:11:37;;;;;;;;;;;;;;;5.22;100.00;98983.06;4996234;28;19925;-84
2022/12/29 11:14:18;;;;;;;;;;;;;;;5.15;100.00;98987.63;4995042;28;19960;-85
2022/12/29 11:16:44;;;;;;;;;;;;;;;5.16;100.00;98980.63;4996292;28;19965;-84
2022/12/29 11:19:23;;;;;;;;;;;;;;;5.21;100.00;98971.69;5011262;28;20451;-85
2022/12/29 11:21:49;;;;;;;;;;;;;;;5.16;100.00;98978.84;4996294;28;19924;-85
2022/12/29 11:24:32;;;;;;;;;;;;;;;5.16;100.00;98985.88;4993519;28;19917;-83
2022/12/29 11:27:17;;;;;;;;;;;;;;;5.18;100.00;99003.28;4996032;28;20384;-86
2022/12/29 11:29:43;;;;;;;;;;;;;;;5.22;100.00;99004.06;4995934;28;20491;-84
2022/12/29 11:32:12;;;;;;;;;;;;;;;5.18;100.00;99003.28;4995855;28;20000;-85
2022/12/29 11:34:38;;;;;;;;;;;;;;;5.23;100.00;99000.50;5010946;28;19944;-86
2022/12/29 11:37:03;;;;;;;;;;;;;;;5.18;100.00;98997.19;4995700;28;20396;-85
2022/12/29 11:39:28;;;;;;;;;;;;;;;5.19;100.00;98994.50;5009718;28;19957;-84
2022/12/29 11:41:54;;;;;;;;;;;;;;;5.22;100.00;98999.66;4995662;28;20051;-84
2022/12/29 11:44:19;;;;;;;;;;;;;;;5.19;100.00;98996.28;4995693;28;19917;-84
2022/12/29 11:46:47;;;;;;;;;;;;;;;5.20;100.00;99001.50;4995648;28;20360;-84
2022/12/29 11:49:18;;;;;;;;;;;;;;;5.16;100.00;98992.00;4995529;28;20274;-86
2022/12/29 11:51:45;;;;;;;;;;;;;;;5.18;100.00;99005.91;4995517;28;19914;-84
2022/12/29 11:54:16;;;;;;;;;;;;;;;5.22;100.00;98994.41;5009094;28;20424;-85
2022/12/29 11:56:43;;;;;;;;;;;;;;;5.21;100.00;98990.06;4995423;28;19969;-84
2022/12/29 11:59:26;;;;;;;;;;;;;;;5.21;100.00;98979.56;4995387;28;19917;-85
2022/12/29 12:01:52;;;;;;;;;;;;;;;5.20;100.00;98974.34;4995381;28;20191;-83
2022/12/29 12:04:19;;;;;;;;;;;;;;;5.22;100.00;98977.81;4995157;28;19961;-86
2022/12/29 12:06:48;;;;;;;;;;;;;;;5.21;100.00;98965.56;4995348;28;19921;-91
2022/12/29 12:09:19;;;;;;;;;;;;;;;5.16;100.00;98978.84;4994033;28;20389;-87
2022/12/29 12:11:45;;;;;;;;;;;;;;;5.21;100.00;98971.69;4995180;28;19918;-86
2022/12/29 12:14:19;;;;;;;;;;;;;;;5.21;100.00;98984.81;4995239;28;19964;-86
2022/12/29 12:16:55;;;;;;;;;;;;;;;5.17;100.00;98979.72;5010178;28;19925;-85
2022/12/29 12:19:23;;;;;;;;;;;;;;;5.17;100.00;98977.97;4994969;28;19918;-85
2022/12/29 12:21:52;;;;;;;;;;;;;;;5.16;100.00;98978.00;4995018;28;19941;-86
2022/12/29 12:24:29;;;;;;;;;;;;;;;5.23;100.00;98972.50;4993685;28;19918;-86
2022/12/29 12:26:58;;;;;;;;;;;;;;;5.19;100.00;98970.88;4995046;28;19924;-84
2022/12/29 12:29:33;;;;;;;;;;;;;;;5.18;100.00;98977.03;4994733;28;19918;-87
2022/12/29 12:32:01;;;;;;;;;;;;;;;5.27;100.00;98974.09;4994844;28;20418;-84
2022/12/29 12:34:38;;;;;;;;;;;;;;;5.26;100.00;98969.78;4994735;28;19918;-82
2022/12/29 12:37:15;;;;;;;;;;;;;;;5.21;100.00;98961.16;4994803;28;19922;-82
2022/12/29 12:39:40;;;;;;;;;;;;;;;5.19;100.00;98956.91;5008592;28;19918;-85
2022/12/29 12:42:05;;;;;;;;;;;;;;;5.17;100.00;98967.44;4994699;28;19925;-82
2022/12/29 12:44:32;;;;;;;;;;;;;;;5.11;100.00;98959.78;4993842;28;20135;-85
2022/12/29 12:47:12;;;;;;;;;;;;;;;5.12;100.00;98956.22;4994663;28;19918;-85
2022/12/29 12:49:49;;;;;;;;;;;;;;;5.11;100.00;98967.66;4994514;28;20016;-83
2022/12/29 12:52:20;;;;;;;;;;;;;;;5.12;100.00;98977.22;4994307;28;19918;-86
2022/12/29 12:54:58;;;;;;;;;;;;;;;5.11;100.00;98969.44;5008176;28;20362;-82
2022/12/29 12:57:42;;;;;;;;;;;;;;;5.15;100.00;98965.78;4994025;28;19922;-83
2022/12/29 13:00:09;;;;;;;;;;;;;;;5.15;100.00;98977.13;4994408;28;19922;-82
2022/12/29 13:02:41;;;;;;;;;;;;;;;5.15;100.00;98969.25;5009206;28;19918;-84
2022/12/29 13:05:24;;;;;;;;;;;;;;;5.18;100.00;98961.28;4994366;28;19917;-83
2022/12/29 13:08:18;;;;;;;;;;;;;;;5.09;100.00;98964.22;4994324;28;19918;-83
2022/12/29 13:10:53;;;;;;;;;;;;;;;5.41;100.00;98946.50;4997155;28;19918;-82
2022/12/29 13:13:24;;;;;;;;;;;;;;;5.80;100.00;98959.13;4994141;28;20008;-83
2022/12/29 13:15:59;;;;;;;;;;;;;;;5.97;100.00;98961.16;5009322;28;19921;-86
2022/12/29 13:18:43;;;;;;;;;;;;;;;6.07;100.00;98962.53;4993959;28;19925;-85
2022/12/29 13:21:20;;;;;;;;;;;;;;;6.17;100.00;98974.44;4994104;28;19918;-86
2022/12/29 13:23:54;;;;;;;;;;;;;;;6.26;100.00;98965.31;4992657;28;20181;-87
2022/12/29 13:26:31;;;;;;;;;;;;;;;6.35;100.00;98958.84;4993920;28;19940;-86
2022/12/29 13:28:56;;;;;;;;;;;;;;;6.46;100.00;98976.84;5009106;28;20292;-85
2022/12/29 13:31:30;;;;;;;;;;;;;;;6.49;100.00;98967.06;4994034;28;19921;-84
2022/12/29 13:33:55;;;;;;;;;;;;;;;6.54;100.00;98978.28;4993870;28;20003;-83
2022/12/29 13:36:27;;;;;;;;;;;;;;;6.64;100.00;98975.28;4993810;28;19969;-84
2022/12/29 13:39:03;;;;;;;;;;;;;;;6.64;100.00;98962.97;4992604;28;19921;-84
2022/12/29 13:41:34;;;;;;;;;;;;;;;6.70;100.00;98967.13;4993731;28;19918;-87
2022/12/29 13:44:01;;;;;;;;;;;;;;;6.73;100.00;98962.63;4993883;28;19925;-85
2022/12/29 13:46:28;;;;;;;;;;;;;;;6.75;100.00;98970.44;4993733;28;19949;-85
2022/12/29 13:49:06;;;;;;;;;;;;;;;6.82;100.00;98981.59;4993810;28;20004;-83
2022/12/29 13:51:32;;;;;;;;;;;;;;;6.85;100.00;98984.09;4993649;28;19918;-87
2022/12/29 13:53:57;;;;;;;;;;;;;;;6.91;100.00;98989.97;5007460;28;20374;-84
2022/12/29 13:56:26;;;;;;;;;;;;;;;6.95;100.00;98982.78;4993478;28;20293;-85
2022/12/29 13:59:12;;;;;;;;;;;;;;;6.97;100.00;98983.56;4993731;28;19972;-83
2022/12/29 14:01:59;;;;;;;;;;;;;;;7.01;100.00;98990.44;4993582;28;19936;-84
2022/12/29 14:04:27;;;;;;;;;;;;;;;7.03;100.00;98999.13;4996520;28;20288;-85
2022/12/29 14:07:05;;;;;;;;;;;;;;;7.08;100.00;98989.28;4993777;28;19964;-85
2022/12/29 14:09:51;;;;;;;;;;;;;;;7.06;100.00;98995.53;5007358;28;19918;-85
2022/12/29 14:12:35;;;;;;;;;;;;;;;7.07;100.00;98997.25;4997470;28;20365;-84
2022/12/29 14:15:10;;;;;;;;;;;;;;;7.14;100.00;99009.25;4997365;28;19918;-84
2022/12/29 14:17:37;;;;;;;;;;;;;;;7.17;100.00;98995.09;4997284;28;20026;-83
2022/12/29 14:20:07;;;;;;;;;;;;;;;7.16;100.00;99006.53;4997216;28;19922;-84
2022/12/29 14:22:56;;;;;;;;;;;;;;;7.18;100.00;99020.50;4997131;28;19968;-83
2022/12/29 14:25:44;;;;;;;;;;;;;;;7.20;100.00;99011.63;5001991;28;19921;-83
2022/12/29 14:28:23;;;;;;;;;;;;;;;7.24;100.00;99014.97;5015350;28;19924;-84
2022/12/29 14:30:51;;;;;;;;;;;;;;;7.24;100.00;99014.97;5016571;28;19976;-84
2022/12/29 14:33:21;;;;;;;;;;;;;;;7.29;100.00;99018.28;5016693;28;19918;-88
2022/12/29 14:35:51;;;;;;;;;;;;;;;7.28;100.00;99011.31;5016670;28;19964;-85
2022/12/29 14:38:28;;;;;;;;;;;;;;;7.37;100.00;99016.19;5033295;28;19971;-85
2022/12/29 14:41:14;;;;;;;;;;;;;;;7.37;100.00;99024.13;5036444;28;20391;-84
2022/12/29 14:43:39;;;;;;;;;;;;;;;7.37;100.00;99021.47;5034780;28;20437;-85
2022/12/29 14:46:07;;;;;;;;;;;;;;;7.38;100.00;99024.97;5036310;28;19921;-84
2022/12/29 14:48:33;;;;;;;;;;;;;;;7.39;100.00;99029.31;5036149;28;19944;-85
2022/12/29 14:50:58;;;;;;;;;;;;;;;7.38;100.00;99032.88;5036164;28;20392;-86
2022/12/29 14:53:53;;;;;;;;;;;;;;;7.40;100.00;99028.38;5025923;28;19964;-85
2022/12/29 14:56:23;;;;;;;;;;;;;;;7.40;100.00;99026.63;5015544;28;20419;-85
2022/12/29 14:58:51;;;;;;;;;;;;;;;7.41;100.00;99023.03;5016263;28;19924;-85
2022/12/29 15:01:40;;;;;;;;;;;;;;;7.43;100.00;99031.72;5015077;28;19918;-85
2022/12/29 15:04:14;;;;;;;;;;;;;;;7.41;100.00;99035.38;5015544;28;19921;-86
2022/12/29 15:06:41;;;;;;;;;;;;;;;7.43;100.00;99039.63;5015990;28;19917;-87
2022/12/29 15:09:14;;;;;;;;;;;;;;;7.49;100.00;99046.44;5015023;28;19924;-88
2022/12/29 15:11:39;;;;;;;;;;;;;;;7.49;100.00;99043.81;5016068;28;19917;-88
2022/12/29 15:14:24;;;;;;;;;;;;;;;7.50;100.00;99052.56;5014605;28;19925;-86
2022/12/29 15:16:49;;;;;;;;;;;;;;;7.50;100.00;99053.44;5015953;28;20004;-83
2022/12/29 15:19:21;;;;;;;;;;;;;;;7.52;100.00;99056.03;5015908;28;19968;-83
2022/12/29 15:21:47;;;;;;;;;;;;;;;7.51;100.00;99070.97;5015293;28;20368;-88
2022/12/29 15:24:12;;;;;;;;;;;;;;;7.53;100.00;99049.81;5013451;28;19928;-86
2022/12/29 15:26:42;;;;;;;;;;;;;;;7.55;100.00;99047.97;5015672;28;20008;-90
2022/12/29 15:29:29;;;;;;;;;;;;;;;7.56;100.00;99052.31;5015702;28;19924;-85
2022/12/29 15:31:55;;;;;;;;;;;;;;;7.54;100.00;99054.16;5015822;28;20368;-87
2022/12/29 15:34:21;;;;;;;;;;;;;;;7.56;100.00;99069.00;5015604;28;19963;-86
2022/12/29 15:36:49;;;;;;;;;;;;;;;7.57;100.00;99065.44;5015423;28;19971;-83
2022/12/29 15:39:26;;;;;;;;;;;;;;;7.56;100.00;99078.69;5014256;28;20273;-86
2022/12/29 15:42:07;;;;;;;;;;;;;;;7.57;100.00;99069.84;5015286;28;19917;-85
2022/12/29 15:44:32;;;;;;;;;;;;;;;7.60;100.00;99059.19;5015363;28;19925;-88
2022/12/29 15:47:01;;;;;;;;;;;;;;;7.59;100.00;99065.38;5015327;28;19917;-84
2022/12/29 15:49:27;;;;;;;;;;;;;;;7.61;100.00;99061.75;5007584;28;19921;-86
2022/12/29 15:51:52;;;;;;;;;;;;;;;7.64;100.00;99060.75;4995445;28;19941;-84
2022/12/29 15:54:19;;;;;;;;;;;;;;;7.63;100.00;99066.97;4993648;28;19917;-85
2022/12/29 15:56:44;;;;;;;;;;;;;;;7.64;100.00;99066.03;4997170;28;19922;-89
2022/12/29 15:59:30;;;;;;;;;;;;;;;7.64;100.00;99066.03;4998165;28;20385;-89
2022/12/29 16:01:56;;;;;;;;;;;;;;;7.63;100.00;99065.19;5014501;28;19924;-87
2022/12/29 16:04:22;;;;;;;;;;;;;;;7.66;100.00;99061.56;5013819;28;19917;-87
2022/12/29 16:07:01;;;;;;;;;;;;;;;7.65;100.00;99080.94;5009888;28;19944;-86
2022/12/29 16:09:44;;;;;;;;;;;;;;;7.68;100.00;99072.06;4997597;28;19921;-87
2022/12/29 16:12:21;;;;;;;;;;;;;;;7.68;100.00;99072.91;5001319;28;19961;-89
2022/12/29 16:15:00;;;;;;;;;;;;;;;7.69;100.00;99071.09;5006423;28;20432;-87
2022/12/29 16:17:30;;;;;;;;;;;;;;;7.67;100.00;99076.44;5012406;28;19918;-88
2022/12/29 16:20:02;;;;;;;;;;;;;;;7.69;100.00;99082.53;5001045;28;20350;-87
2022/12/29 16:22:29;;;;;;;;;;;;;;;7.69;100.00;99085.16;5011154;28;19922;-86
2022/12/29 16:24:57;;;;;;;;;;;;;;;7.70;100.00;99086.88;5013369;28;19940;-86
2022/12/29 16:27:25;;;;;;;;;;;;;;;7.71;100.00;99091.22;4994488;28;19980;-89
2022/12/29 16:29:54;;;;;;;;;;;;;;;7.71;100.00;99088.59;5011302;28;20025;-87
2022/12/29 16:32:23;;;;;;;;;;;;;;;7.72;100.00;99084.16;5012817;28;19922;-86
2022/12/29 16:34:50;;;;;;;;;;;;;;;7.74;100.00;99077.91;5009447;28;19926;-91
2022/12/29 16:37:29;;;;;;;;;;;;;;;7.76;100.00;99086.63;5002303;28;20000;-86
2022/12/29 16:39:54;;;;;;;;;;;;;;;7.75;100.00;99082.25;5011985;28;19918;-88
2022/12/29 16:42:44;;;;;;;;;;;;;;;7.75;100.00;99082.25;5014189;28;19918;-89
2022/12/29 16:45:30;;;;;;;;;;;;;;;7.77;100.00;99084.81;4997723;28;20381;-87
2022/12/29 16:48:04;;;;;;;;;;;;;;;7.75;100.00;99074.34;4986628;28;19964;-88
2022/12/29 16:50:29;;;;;;;;;;;;;;;7.76;100.00;99078.69;5003762;28;19929;-90
2022/12/29 16:52:55;;;;;;;;;;;;;;;7.77;100.00;99072.50;4993187;28;19918;-83
2022/12/29 16:55:20;;;;;;;;;;;;;;;7.79;100.00;99072.44;4992035;28;19918;-85
2022/12/29 16:57:47;;;;;;;;;;;;;;;7.81;100.00;99073.22;4997660;28;19921;-86
2022/12/29 17:00:20;;;;;;;;;;;;;;;7.79;100.00;99081.22;5012808;28;19922;-83
2022/12/29 17:02:46;;;;;;;;;;;;;;;7.81;100.00;99089.06;4995651;28;19926;-85
2022/12/29 17:05:15;;;;;;;;;;;;;;;7.80;100.00;99088.22;4999483;28;20370;-84
2022/12/29 17:07:41;;;;;;;;;;;;;;;7.82;100.00;99094.25;5021789;28;20441;-85
2022/12/29 17:10:06;;;;;;;;;;;;;;;7.84;100.00;99096.00;5012307;28;20031;-85
2022/12/29 17:12:33;;;;;;;;;;;;;;;7.84;100.00;99098.63;5011222;28;19979;-85
2022/12/29 17:15:00;;;;;;;;;;;;;;;7.84;100.00;99102.13;5006940;28;19922;-84
2022/12/29 17:17:48;;;;;;;;;;;;;;;7.84;100.00;99096.84;4995864;28;19929;-84
2022/12/29 17:20:17;;;;;;;;;;;;;;;7.84;100.00;99098.63;5009455;28;20336;-83
2022/12/29 17:22:47;;;;;;;;;;;;;;;7.86;100.00;99096.78;5012222;28;20011;-84
2022/12/29 17:25:13;;;;;;;;;;;;;;;7.87;100.00;99096.72;5010020;28;19918;-83
2022/12/29 17:27:57;;;;;;;;;;;;;;;7.88;100.00;99106.34;4992526;28;19925;-83
2022/12/29 17:30:24;;;;;;;;;;;;;;;7.88;100.00;99108.09;4994380;28;20312;-82
2022/12/29 17:32:53;;;;;;;;;;;;;;;7.87;100.00;99102.00;4993825;28;19924;-84
2022/12/29 17:35:19;;;;;;;;;;;;;;;7.90;100.00;99101.00;4992577;28;19925;-84
2022/12/29 17:37:45;;;;;;;;;;;;;;;7.89;100.00;99097.50;5003385;28;19922;-88
2022/12/29 17:40:15;;;;;;;;;;;;;;;7.93;100.00;99092.94;5009434;28;19921;-86
2022/12/29 17:42:51;;;;;;;;;;;;;;;7.91;100.00;99102.72;5011790;28;20380;-83
2022/12/29 17:45:35;;;;;;;;;;;;;;;7.94;100.00;99102.56;5012187;28;20032;-85
2022/12/29 17:48:00;;;;;;;;;;;;;;;7.91;100.00;99105.34;5017261;28;19914;-84
2022/12/29 17:50:28;;;;;;;;;;;;;;;7.91;100.00;99110.63;5000379;28;20044;-87
2022/12/29 17:53:05;;;;;;;;;;;;;;;7.90;100.00;99109.78;4998800;28;19914;-83
2022/12/29 17:55:31;;;;;;;;;;;;;;;7.92;100.00;99107.06;4998735;28;20411;-84
2022/12/29 17:57:56;;;;;;;;;;;;;;;7.92;100.00;99110.56;4998576;28;19957;-88
2022/12/29 18:00:23;;;;;;;;;;;;;;;7.94;100.00;99115.78;5014926;28;19928;-86
2022/12/29 18:02:51;;;;;;;;;;;;;;;7.93;100.00;99112.28;5019627;28;19980;-84
2022/12/29 18:05:26;;;;;;;;;;;;;;;7.92;100.00;99112.34;5013386;28;19925;-85
2022/12/29 18:07:53;;;;;;;;;;;;;;;7.93;100.00;99108.75;5011114;28;19939;-87
2022/12/29 18:10:18;;;;;;;;;;;;;;;7.92;100.00;99115.84;5003450;28;19922;-84
2022/12/29 18:12:45;;;;;;;;;;;;;;;7.95;100.00;99125.41;5005861;28;19940;-85
2022/12/29 18:15:25;;;;;;;;;;;;;;;7.95;100.00;99126.25;5037971;28;19921;-84
2022/12/29 18:17:59;;;;;;;;;;;;;;;7.98;100.00;99118.22;5028951;28;20319;-83
2022/12/29 18:20:24;;;;;;;;;;;;;;;8.00;100.00;99120.78;5012815;28;20415;-86
2022/12/29 18:22:50;;;;;;;;;;;;;;;7.99;100.00;99132.25;5015333;28;19948;-85
2022/12/29 18:25:24;;;;;;;;;;;;;;;8.02;100.00;99133.91;5017064;28;19922;-84
2022/12/29 18:27:49;;;;;;;;;;;;;;;8.04;100.00;99132.06;5019508;28;19925;-85
2022/12/29 18:30:15;;;;;;;;;;;;;;;8.03;100.00;99128.56;5005865;28;19921;-83
2022/12/29 18:32:41;;;;;;;;;;;;;;;8.02;100.00;99128.63;5010122;28;20289;-85
2022/12/29 18:35:32;;;;;;;;;;;;;;;8.03;100.00;99128.56;5003546;28;19932;-83
2022/12/29 18:38:01;;;;;;;;;;;;;;;8.03;100.00;99127.72;5019258;28;19941;-86
2022/12/29 18:40:26;;;;;;;;;;;;;;;8.04;100.00;99135.56;4997341;28;19918;-87
2022/12/29 18:42:51;;;;;;;;;;;;;;;8.05;100.00;99129.34;5030988;28;20483;-84
2022/12/29 18:45:18;;;;;;;;;;;;;;;8.05;100.00;99132.00;5031045;28;20333;-84
2022/12/29 18:47:44;;;;;;;;;;;;;;;8.07;100.00;99137.19;5002134;28;19961;-85
2022/12/29 18:50:09;;;;;;;;;;;;;;;8.08;100.00;99145.06;5001883;28;19978;-84
2022/12/29 18:52:34;;;;;;;;;;;;;;;8.07;100.00;99140.69;5007746;28;19922;-86
2022/12/29 18:55:00;;;;;;;;;;;;;;;8.09;100.00;99146.78;5003720;28;19992;-85
2022/12/29 18:57:29;;;;;;;;;;;;;;;8.08;100.00;99149.47;5009663;28;20446;-84
2022/12/29 18:59:54;;;;;;;;;;;;;;;8.12;100.00;99161.59;5015917;28;19924;-85
2022/12/29 19:02:19;;;;;;;;;;;;;;;8.09;100.00;99159.97;5012058;28;19921;-86
2022/12/29 19:04:45;;;;;;;;;;;;;;;8.12;100.00;99153.69;4999096;28;20055;-84
2022/12/29 19:07:10;;;;;;;;;;;;;;;8.09;100.00;99146.78;5011761;28;20020;-82
2022/12/29 19:09:36;;;;;;;;;;;;;;;8.11;100.00;99150.19;5012355;28;20000;-84
2022/12/29 19:12:02;;;;;;;;;;;;;;;8.13;100.00;99153.63;5011836;28;19972;-83
2022/12/29 19:14:28;;;;;;;;;;;;;;;8.61;100.00;99163.94;5013584;28;19971;-86
2022/12/29 19:16:53;;;;;;;;;;;;;;;8.62;100.00;99163.88;5014238;28;19926;-84
2022/12/29 19:19:18;;;;;;;;;;;;;;;8.28;100.00;99164.44;5014703;28;19924;-85
2022/12/29 19:21:44;;;;;;;;;;;;;;;8.17;100.00;99164.94;5001967;28;20052;-85
2022/12/29 19:24:10;;;;;;;;;;;;;;;8.14;100.00;99155.34;4994716;28;19917;-84
2022/12/29 19:26:38;;;;;;;;;;;;;;;8.11;100.00;99166.03;5015772;28;20016;-85
2022/12/29 19:29:05;;;;;;;;;;;;;;;8.10;100.00;99164.31;5013091;28;19928;-86
2022/12/29 19:31:32;;;;;;;;;;;;;;;8.10;100.00;99169.59;4999845;28;19967;-84
2022/12/29 19:33:59;;;;;;;;;;;;;;;8.09;100.00;99167.00;5006405;28;19945;-85